createdAt,value
2022-08-04T00:06:51.893Z,31.82
2022-08-04T00:09:29.031Z,31.77
2022-08-04T00:12:01.315Z,31.71
2022-08-04T00:14:38.186Z,31.69
2022-08-04T00:17:07.218Z,31.64
2022-08-04T00:19:47.907Z,31.64
2022-08-04T00:25:16.415Z,31.50
2022-08-04T00:27:47.259Z,31.48
2022-08-04T00:30:15.418Z,31.40
2022-08-04T00:32:45.479Z,31.32
2022-08-04T00:35:16.333Z,31.28
2022-08-04T00:37:46.514Z,31.24
2022-08-04T00:40:34.552Z,31.21
2022-08-04T00:49:10.779Z,31.37
2022-08-04T00:52:32.274Z,31.38
2022-08-04T00:55:09.117Z,31.33
2022-08-04T00:58:20.544Z,31.38
2022-08-04T01:01:05.423Z,31.41
2022-08-04T01:03:50.148Z,31.47
2022-08-04T01:12:31.194Z,31.36
2022-08-04T01:15:10.372Z,31.31
2022-08-04T01:18:06.112Z,31.24
2022-08-04T01:20:48.019Z,31.21
2022-08-04T01:23:40.857Z,31.21
2022-08-04T01:26:42.550Z,31.16
2022-08-04T01:29:27.462Z,31.12
2022-08-04T01:35:47.597Z,31.22
2022-08-04T01:38:36.875Z,31.18
2022-08-04T01:41:08.609Z,31.11
2022-08-04T01:43:41.630Z,31.09
2022-08-04T01:46:12.521Z,31.06
2022-08-04T01:48:47.573Z,31.04
2022-08-04T01:55:54.286Z,30.93
2022-08-04T01:58:25.653Z,30.93
2022-08-04T02:01:06.565Z,30.90
2022-08-04T02:04:19.786Z,30.90
2022-08-04T02:06:40.651Z,30.90
2022-08-04T02:09:27.833Z,30.92
2022-08-04T02:20:08.944Z,30.82
2022-08-04T02:22:58.715Z,30.83
2022-08-04T02:25:29.351Z,30.77
2022-08-04T02:28:12.351Z,30.75
2022-08-04T02:30:55.594Z,30.77
2022-08-04T02:33:36.027Z,30.81
2022-08-04T02:36:05.866Z,30.70
2022-08-04T02:45:57.414Z,30.70
2022-08-04T02:48:31.003Z,30.76
2022-08-04T02:51:00.729Z,30.83
2022-08-04T02:53:30.995Z,30.85
2022-08-04T02:56:01.079Z,30.89
2022-08-04T02:58:35.667Z,30.92
2022-08-04T03:01:09.885Z,30.94
2022-08-04T03:08:50.842Z,30.92
2022-08-04T03:11:45.982Z,30.97
2022-08-04T03:15:03.402Z,30.97
2022-08-04T03:18:05.932Z,30.98
2022-08-04T03:21:00.736Z,30.98
2022-08-04T03:29:14.840Z,30.93
2022-08-04T03:32:12.051Z,30.93
2022-08-04T03:34:49.314Z,30.96
2022-08-04T03:37:56.334Z,30.95
2022-08-04T03:40:52.510Z,30.93
2022-08-04T03:43:59.962Z,30.94
2022-08-04T03:50:41.594Z,30.93
2022-08-04T03:53:21.328Z,30.90
2022-08-04T03:56:19.151Z,30.89
2022-08-04T03:59:15.993Z,30.87
2022-08-04T04:02:01.284Z,30.83
2022-08-04T04:04:56.638Z,30.80
2022-08-04T04:10:28.683Z,30.96
2022-08-04T04:13:08.767Z,30.81
2022-08-04T04:16:16.076Z,30.77
2022-08-04T04:19:01.818Z,30.73
2022-08-04T04:22:09.611Z,30.72
2022-08-04T04:25:18.922Z,30.69
2022-08-04T04:37:16.391Z,30.54
2022-08-04T04:39:52.269Z,30.51
2022-08-04T04:42:50.437Z,30.54
2022-08-04T04:45:45.202Z,30.52
2022-08-04T04:48:48.287Z,30.49
2022-08-04T04:51:28.377Z,30.44
2022-08-04T04:54:00.174Z,30.38
2022-08-04T05:02:41.261Z,30.35
2022-08-04T05:05:29.087Z,30.33
2022-08-04T05:08:45.228Z,30.30
2022-08-04T05:11:06.158Z,30.28
2022-08-04T05:14:34.757Z,30.29
2022-08-04T05:16:46.251Z,30.27
2022-08-04T05:24:21.049Z,30.25
2022-08-04T05:26:56.929Z,30.27
2022-08-04T05:29:33.235Z,30.25
2022-08-04T05:32:10.648Z,30.24
2022-08-04T05:34:56.204Z,30.25
2022-08-04T05:37:28.267Z,30.24
2022-08-04T05:45:39.221Z,30.21
2022-08-04T05:48:10.938Z,30.23
2022-08-04T05:50:39.562Z,30.22
2022-08-04T05:53:10.489Z,30.23
2022-08-04T05:55:58.256Z,30.20
2022-08-04T05:58:28.579Z,30.20
2022-08-04T06:01:01.900Z,30.24
2022-08-04T06:08:47.610Z,30.14
2022-08-04T06:11:19.188Z,30.08
2022-08-04T06:14:01.539Z,30.03
2022-08-04T06:16:37.543Z,29.96
2022-08-04T06:20:00.737Z,29.90
2022-08-04T06:22:06.353Z,29.84
2022-08-04T06:24:37.944Z,29.81
2022-08-04T06:32:35.451Z,29.71
2022-08-04T06:35:08.217Z,29.71
2022-08-04T06:37:43.703Z,29.71
2022-08-04T06:40:29.507Z,29.72
2022-08-04T06:43:01.664Z,29.71
2022-08-04T06:45:30.861Z,29.74
2022-08-04T06:51:37.232Z,29.78
2022-08-04T06:54:07.415Z,29.81
2022-08-04T06:56:39.611Z,29.81
2022-08-04T06:59:08.057Z,29.83
2022-08-04T07:01:38.477Z,29.81
2022-08-04T07:04:07.278Z,29.76
2022-08-04T07:06:36.336Z,29.74
2022-08-04T07:11:51.889Z,29.68
2022-08-04T07:14:20.234Z,29.69
2022-08-04T07:16:49.910Z,29.72
2022-08-04T07:19:19.190Z,29.73
2022-08-04T07:22:17.633Z,29.74
2022-08-04T07:24:37.801Z,29.72
2022-08-04T07:29:49.936Z,29.74
2022-08-04T07:32:20.865Z,29.74
2022-08-04T07:34:52.629Z,29.74
2022-08-04T07:37:20.412Z,29.75
2022-08-04T07:39:48.658Z,29.79
2022-08-04T07:42:21.277Z,29.86
2022-08-04T07:44:49.100Z,29.88
2022-08-04T07:47:20.993Z,29.90
2022-08-04T07:54:59.545Z,29.91
2022-08-04T07:57:40.115Z,29.90
2022-08-04T08:00:12.186Z,29.92
2022-08-04T08:02:40.205Z,29.94
2022-08-04T08:05:13.139Z,29.93
2022-08-04T08:07:50.602Z,29.89
2022-08-04T08:15:30.133Z,29.84
2022-08-04T08:18:00.338Z,29.84
2022-08-04T08:20:30.712Z,29.84
2022-08-04T08:22:59.063Z,29.78
2022-08-04T08:25:27.207Z,29.77
2022-08-04T08:27:56.814Z,29.77
2022-08-04T08:30:31.736Z,29.77
2022-08-04T08:41:41.198Z,29.74
2022-08-04T08:44:47.172Z,29.78
2022-08-04T08:48:05.883Z,29.77
2022-08-04T08:50:42.661Z,29.77
2022-08-04T08:53:28.834Z,29.74
2022-08-04T08:56:31.280Z,29.76
2022-08-04T09:03:04.514Z,29.69
2022-08-04T09:06:00.579Z,29.70
2022-08-04T09:09:10.207Z,29.68
2022-08-04T09:11:49.218Z,29.66
2022-08-04T09:14:26.839Z,29.66
2022-08-04T09:17:11.263Z,29.70
2022-08-04T09:19:53.813Z,29.69
2022-08-04T09:28:09.363Z,29.70
2022-08-04T09:30:52.911Z,29.69
2022-08-04T09:33:45.608Z,29.70
2022-08-04T09:36:40.525Z,29.67
2022-08-04T09:39:20.074Z,29.63
2022-08-04T09:42:07.678Z,29.57
2022-08-04T09:45:39.186Z,29.58
2022-08-04T09:53:56.274Z,29.48
2022-08-04T09:56:32.361Z,29.43
2022-08-04T09:59:09.311Z,29.43
2022-08-04T10:01:39.737Z,29.40
2022-08-04T10:04:19.751Z,29.42
2022-08-04T10:07:18.289Z,29.42
2022-08-04T10:15:20.798Z,29.45
2022-08-04T10:18:17.182Z,29.44
2022-08-04T10:21:18.981Z,29.46
2022-08-04T10:24:00.424Z,29.46
2022-08-04T10:26:36.447Z,29.45
2022-08-04T10:29:10.902Z,29.42
2022-08-04T10:40:46.737Z,29.34
2022-08-04T10:43:22.805Z,29.33
2022-08-04T10:46:27.033Z,29.33
2022-08-04T10:49:03.926Z,29.34
2022-08-04T10:51:57.598Z,29.34
2022-08-04T10:54:44.060Z,29.34
2022-08-04T11:00:26.952Z,29.37
2022-08-04T11:03:23.427Z,29.39
2022-08-04T11:06:02.562Z,29.37
2022-08-04T11:08:40.716Z,29.37
2022-08-04T11:11:28.893Z,29.37
2022-08-04T11:14:15.324Z,29.39
2022-08-04T11:20:07.674Z,29.34
2022-08-04T11:23:11.013Z,29.35
2022-08-04T11:25:59.439Z,29.35
2022-08-04T11:29:03.293Z,29.40
2022-08-04T11:31:41.688Z,29.42
2022-08-04T11:34:21.785Z,29.48
2022-08-04T11:37:17.141Z,29.54
2022-08-04T11:45:53.332Z,29.87
2022-08-04T11:48:33.587Z,30.02
2022-08-04T11:51:06.817Z,30.06
2022-08-04T11:53:38.372Z,30.15
2022-08-04T11:56:13.426Z,30.23
2022-08-04T11:58:50.529Z,30.28
2022-08-04T12:01:51.297Z,30.36
2022-08-04T12:13:23.142Z,30.51
2022-08-04T12:16:22.067Z,30.42
2022-08-04T12:18:59.082Z,30.32
2022-08-04T12:21:50.364Z,30.24
2022-08-04T12:24:27.723Z,30.13
2022-08-04T12:27:01.741Z,30.04
2022-08-04T12:29:33.636Z,29.85
2022-08-04T12:37:47.475Z,29.14
2022-08-04T12:40:30.278Z,28.96
2022-08-04T12:43:11.805Z,28.94
2022-08-04T12:45:56.401Z,28.98
2022-08-04T12:48:27.832Z,28.98
2022-08-04T12:50:58.328Z,29.02
2022-08-04T12:53:50.642Z,29.01
2022-08-04T13:02:10.040Z,29.03
2022-08-04T13:04:29.866Z,29.17
2022-08-04T13:07:03.493Z,29.34
2022-08-04T13:09:36.348Z,29.46
2022-08-04T13:12:13.279Z,29.55
2022-08-04T13:14:47.183Z,29.58
2022-08-04T13:20:07.626Z,29.94
2022-08-04T13:22:46.359Z,30.28
2022-08-04T13:26:40.364Z,30.69
2022-08-04T13:28:04.594Z,31.11
2022-08-04T13:30:33.344Z,31.47
2022-08-04T13:33:06.399Z,31.67
2022-08-04T13:35:54.405Z,31.66
2022-08-04T13:41:20.345Z,31.73
2022-08-04T13:44:19.437Z,31.43
2022-08-04T13:46:50.724Z,31.25
2022-08-04T13:49:42.550Z,31.15
2022-08-04T13:52:11.231Z,31.08
2022-08-04T13:54:47.981Z,31.13
2022-08-04T14:02:46.005Z,31.13
2022-08-04T14:05:59.263Z,31.18
2022-08-04T14:08:31.659Z,31.16
2022-08-04T14:11:02.812Z,31.13
2022-08-04T14:13:41.039Z,31.17
2022-08-04T14:16:21.364Z,31.34
2022-08-04T14:18:58.094Z,31.53
2022-08-04T14:24:27.632Z,32.13
2022-08-04T14:27:01.384Z,32.34
2022-08-04T14:29:38.724Z,32.48
2022-08-04T14:32:12.623Z,32.67
2022-08-04T14:34:46.753Z,32.80
2022-08-04T14:37:20.349Z,32.99
2022-08-04T14:45:00.910Z,33.27
2022-08-04T14:47:52.855Z,33.30
2022-08-04T14:50:33.315Z,33.47
2022-08-04T14:53:05.267Z,33.70
2022-08-04T14:55:33.809Z,33.99
2022-08-04T14:58:34.255Z,33.95
2022-08-04T15:00:49.239Z,34.04
2022-08-04T15:08:29.255Z,34.60
2022-08-04T15:11:03.097Z,34.70
2022-08-04T15:13:32.426Z,34.74
2022-08-04T15:16:07.458Z,34.78
2022-08-04T15:18:38.792Z,34.78
2022-08-04T15:21:10.647Z,34.94
2022-08-04T15:23:40.263Z,35.06
2022-08-04T15:28:57.870Z,34.94
2022-08-04T15:32:06.355Z,34.92
2022-08-04T15:34:17.472Z,35.12
2022-08-04T15:36:56.868Z,34.99
2022-08-04T15:39:25.933Z,34.96
2022-08-04T15:42:21.891Z,35.19
2022-08-04T15:45:05.079Z,34.92
2022-08-04T15:50:58.404Z,34.86
2022-08-04T15:53:28.742Z,35.11
2022-08-04T15:56:24.366Z,35.49
2022-08-04T15:58:56.814Z,35.42
2022-08-04T16:01:24.965Z,35.27
2022-08-04T16:03:59.911Z,35.05
2022-08-04T16:09:08.569Z,35.01
2022-08-04T16:11:40.422Z,35.33
2022-08-04T16:14:10.147Z,35.64
2022-08-04T16:16:50.512Z,35.73
2022-08-04T16:19:35.439Z,35.92
2022-08-04T16:22:06.624Z,35.85
2022-08-04T16:27:44.960Z,35.87
2022-08-04T16:30:18.391Z,35.95
2022-08-04T16:32:48.730Z,36.07
2022-08-04T16:35:26.271Z,36.20
2022-08-04T16:38:14.644Z,36.36
2022-08-04T16:40:44.208Z,36.38
2022-08-04T16:43:21.875Z,36.51
2022-08-04T16:51:16.963Z,36.43
2022-08-04T16:54:03.929Z,36.22
2022-08-04T16:56:35.404Z,36.29
2022-08-04T16:59:09.258Z,36.21
2022-08-04T17:01:47.879Z,36.15
2022-08-04T17:04:18.086Z,36.16
2022-08-04T17:06:48.093Z,36.21
2022-08-04T17:14:02.266Z,36.42
2022-08-04T17:16:20.938Z,36.61
2022-08-04T17:18:51.838Z,36.62
2022-08-04T17:21:27.589Z,36.42
2022-08-04T17:24:14.216Z,36.29
2022-08-04T17:26:54.508Z,36.10
2022-08-04T17:34:50.626Z,36.66
2022-08-04T17:37:51.886Z,36.80
2022-08-04T17:40:22.690Z,36.82
2022-08-04T17:44:01.093Z,36.81
2022-08-04T17:46:29.183Z,36.35
2022-08-04T17:54:59.704Z,37.02
2022-08-04T17:57:30.766Z,37.10
2022-08-04T18:00:01.659Z,37.06
2022-08-04T18:02:38.183Z,36.87
2022-08-04T18:05:11.768Z,36.79
2022-08-04T18:08:39.004Z,36.73
2022-08-04T18:10:55.640Z,36.72
2022-08-04T18:18:49.089Z,36.74
2022-08-04T18:21:18.968Z,36.76
2022-08-04T18:23:50.995Z,36.79
2022-08-04T18:26:23.606Z,36.84
2022-08-04T18:28:51.755Z,36.73
2022-08-04T18:31:19.263Z,36.70
2022-08-04T18:33:57.451Z,36.76
2022-08-04T18:39:13.063Z,36.73
2022-08-04T18:41:51.590Z,36.74
2022-08-04T18:44:31.853Z,36.68
2022-08-04T18:47:19.248Z,36.74
2022-08-04T18:50:59.424Z,36.92
2022-08-04T18:52:42.105Z,37.11
2022-08-04T19:00:09.969Z,37.16
2022-08-04T19:02:39.039Z,36.96
2022-08-04T19:05:09.212Z,36.94
2022-08-04T19:08:01.497Z,36.89
2022-08-04T19:10:30.435Z,37.14
2022-08-04T19:12:59.498Z,37.13
2022-08-04T19:15:34.058Z,36.99
2022-08-04T19:24:28.061Z,36.68
2022-08-04T19:28:52.899Z,36.73
2022-08-04T19:31:26.583Z,36.59
2022-08-04T19:34:04.935Z,36.63
2022-08-04T19:36:35.066Z,36.62
2022-08-04T19:44:13.197Z,36.91
2022-08-04T19:46:46.018Z,36.82
2022-08-04T19:50:04.945Z,36.83
2022-08-04T19:52:03.042Z,36.74
2022-08-04T19:54:30.585Z,36.70
2022-08-04T19:56:58.883Z,36.72
2022-08-04T20:04:52.048Z,36.52
2022-08-04T20:07:19.832Z,36.79
2022-08-04T20:09:53.350Z,36.86
2022-08-04T20:12:21.683Z,36.87
2022-08-04T20:14:49.457Z,37.06
2022-08-04T20:17:19.218Z,36.92
2022-08-04T20:20:08.840Z,36.83
2022-08-04T20:25:37.047Z,36.54
2022-08-04T20:28:07.213Z,36.54
2022-08-04T20:30:34.898Z,36.59
2022-08-04T20:33:04.355Z,36.64
2022-08-04T20:36:00.832Z,36.52
2022-08-04T20:38:33.405Z,36.38
2022-08-04T20:43:41.193Z,36.25
2022-08-04T20:46:18.659Z,36.34
2022-08-04T20:48:58.352Z,36.42
2022-08-04T20:51:31.868Z,36.38
2022-08-04T20:54:02.355Z,36.19
2022-08-04T20:56:31.402Z,35.97
2022-08-04T20:59:07.587Z,35.66
2022-08-04T21:09:37.271Z,34.57
2022-08-04T21:12:26.633Z,34.48
2022-08-04T21:15:13.631Z,34.68
2022-08-04T21:17:58.678Z,34.91
2022-08-04T21:20:31.416Z,35.12
2022-08-04T21:23:02.026Z,35.21
2022-08-04T21:28:09.761Z,35.09
2022-08-04T21:30:52.242Z,35.10
2022-08-04T21:33:22.777Z,35.02
2022-08-04T21:35:54.211Z,35.07
2022-08-04T21:38:28.084Z,35.09
2022-08-04T21:41:01.566Z,35.06
2022-08-04T21:46:21.439Z,34.80
2022-08-04T21:48:49.400Z,34.79
2022-08-04T21:51:57.456Z,34.68
2022-08-04T21:54:28.441Z,34.42
2022-08-04T21:56:57.091Z,34.30
2022-08-04T21:59:30.755Z,34.32
2022-08-04T22:02:03.111Z,34.36
2022-08-04T22:10:00.310Z,34.30
2022-08-04T22:12:30.290Z,34.38
2022-08-04T22:15:00.572Z,34.30
2022-08-04T22:17:34.947Z,34.29
2022-08-04T22:20:05.573Z,34.30
2022-08-04T22:22:38.829Z,34.32
2022-08-04T22:28:01.036Z,34.19
2022-08-04T22:30:36.973Z,34.12
2022-08-04T22:33:09.646Z,34.05
2022-08-04T22:35:48.752Z,34.01
2022-08-04T22:38:35.855Z,33.92
2022-08-04T22:41:10.457Z,33.97
2022-08-04T22:46:33.418Z,33.76
2022-08-04T22:49:01.264Z,33.63
2022-08-04T22:51:28.665Z,33.54
2022-08-04T22:54:00.265Z,33.52
2022-08-04T22:56:38.707Z,33.51
2022-08-04T22:59:09.947Z,33.52
2022-08-04T23:01:59.492Z,33.49
2022-08-04T23:09:50.352Z,33.18
2022-08-04T23:12:26.254Z,33.07
2022-08-04T23:14:58.728Z,32.99
2022-08-04T23:17:30.390Z,32.98
2022-08-04T23:20:23.178Z,32.90
2022-08-04T23:22:55.695Z,32.80
2022-08-04T23:25:33.198Z,32.77
2022-08-04T23:33:18.672Z,32.94
2022-08-04T23:35:49.071Z,32.68
2022-08-04T23:38:30.430Z,32.57
2022-08-04T23:41:14.993Z,32.56
2022-08-04T23:43:55.482Z,32.47
2022-08-04T23:46:25.556Z,32.42
2022-08-04T23:48:54.719Z,32.39
2022-08-04T23:59:17.982Z,32.26
